createdAt,value
2018-08-23T00:00:47.733Z,2.27
2018-08-23T00:03:21.561Z,2.50
2018-08-23T00:05:52.062Z,2.63
2018-08-23T00:08:20.956Z,2.40
2018-08-23T00:10:50.098Z,2.20
2018-08-23T00:13:18.928Z,2.20
2018-08-23T00:15:47.629Z,2.17
2018-08-23T00:18:16.265Z,2.03
2018-08-23T00:20:44.860Z,2.03
2018-08-23T00:23:13.497Z,2.00
2018-08-23T00:25:42.125Z,2.00
2018-08-23T00:28:11.719Z,1.70
2018-08-23T00:30:40.377Z,1.30
2018-08-23T00:33:08.934Z,1.13
2018-08-23T00:35:38.594Z,1.73
2018-08-23T00:38:08.073Z,1.60
2018-08-23T00:40:39.761Z,1.43
2018-08-23T00:43:09.474Z,1.87
2018-08-23T00:45:38.121Z,1.90
2018-08-23T00:48:06.837Z,1.63
2018-08-23T00:50:57.506Z,2.03
2018-08-23T00:53:26.549Z,2.30
2018-08-23T00:56:10.329Z,2.80
2018-08-23T00:58:39.130Z,2.73
2018-08-23T01:01:07.817Z,3.10
2018-08-23T01:03:36.445Z,3.30
2018-08-23T01:06:05.310Z,2.53
2018-08-23T01:08:34.882Z,1.10
2018-08-23T01:11:05.034Z,1.10
2018-08-23T01:13:33.667Z,0.53
2018-08-23T01:16:02.286Z,0.53
2018-08-23T01:18:30.977Z,0.70
2018-08-23T01:20:59.694Z,0.50
2018-08-23T01:23:28.345Z,0.50
2018-08-23T01:25:56.971Z,0.60
2018-08-23T01:28:25.577Z,0.77
2018-08-23T01:30:54.252Z,0.57
2018-08-23T01:33:23.010Z,0.93
2018-08-23T01:35:52.509Z,0.80
2018-08-23T01:38:21.120Z,0.87
2018-08-23T01:40:51.855Z,0.80
2018-08-23T01:43:20.615Z,0.70
2018-08-23T01:45:49.274Z,0.77
2018-08-23T01:48:17.919Z,0.90
2018-08-23T01:50:46.637Z,0.93
2018-08-23T01:53:15.337Z,0.70
2018-08-23T01:55:43.971Z,0.80
2018-08-23T01:58:13.394Z,0.80
2018-08-23T02:00:42.004Z,0.93
2018-08-23T02:03:10.649Z,1.10
2018-08-23T02:05:43.121Z,1.10
2018-08-23T02:08:11.770Z,0.90
2018-08-23T02:10:40.397Z,0.80
2018-08-23T02:13:16.146Z,1.00
2018-08-23T02:15:50.782Z,0.97
2018-08-23T02:18:19.459Z,1.20
2018-08-23T02:20:50.645Z,1.10
2018-08-23T02:23:19.268Z,1.30
2018-08-23T02:25:47.890Z,1.23
2018-08-23T02:28:16.488Z,1.00
2018-08-23T02:30:50.424Z,1.40
2018-08-23T02:33:19.039Z,1.30
2018-08-23T02:36:22.734Z,1.40
2018-08-23T02:38:59.621Z,1.30
2018-08-23T02:41:28.377Z,1.20
2018-08-23T02:43:57.021Z,1.40
2018-08-23T02:46:25.671Z,1.17
2018-08-23T02:48:54.361Z,1.50
2018-08-23T02:51:36.871Z,1.40
2018-08-23T02:54:05.676Z,1.33
2018-08-23T02:56:34.950Z,1.50
2018-08-23T02:59:06.588Z,1.60
2018-08-23T03:01:38.244Z,1.40
2018-08-23T03:04:08.662Z,1.20
2018-08-23T03:07:12.423Z,1.37
2018-08-23T03:09:42.819Z,1.60
2018-08-23T03:12:18.807Z,1.60
2018-08-23T03:14:47.903Z,1.67
2018-08-23T03:18:22.618Z,2.00
2018-08-23T03:21:01.051Z,1.60
2018-08-23T03:23:29.688Z,1.80
2018-08-23T03:25:58.353Z,1.70
2018-08-23T03:28:26.953Z,1.70
2018-08-23T03:31:01.193Z,1.93
2018-08-23T03:33:31.250Z,1.83
2018-08-23T03:35:59.894Z,2.07
2018-08-23T03:38:28.566Z,1.80
2018-08-23T03:40:57.345Z,2.10
2018-08-23T03:43:25.990Z,2.40
2018-08-23T03:45:57.588Z,2.10
2018-08-23T03:48:26.268Z,2.27
2018-08-23T03:50:54.920Z,1.80
2018-08-23T03:53:26.088Z,2.00
2018-08-23T03:56:07.321Z,2.37
2018-08-23T03:58:36.073Z,2.03
2018-08-23T04:01:06.413Z,2.27
2018-08-23T04:03:35.135Z,2.00
2018-08-23T04:06:18.375Z,1.93
2018-08-23T04:08:47.779Z,2.00
2018-08-23T04:11:16.671Z,2.10
2018-08-23T04:13:46.377Z,2.27
2018-08-23T04:16:15.561Z,2.00
2018-08-23T04:18:44.165Z,2.10
2018-08-23T04:21:12.837Z,2.23
2018-08-23T04:23:41.470Z,2.20
2018-08-23T04:26:10.147Z,2.10
2018-08-23T04:28:38.792Z,2.17
2018-08-23T04:31:07.493Z,2.20
2018-08-23T04:33:36.188Z,2.20
2018-08-23T04:36:05.481Z,2.50
2018-08-23T04:38:35.831Z,2.53
2018-08-23T04:41:08.038Z,2.23
2018-08-23T04:43:36.649Z,2.03
2018-08-23T04:46:09.384Z,2.07
2018-08-23T04:48:38.053Z,2.23
2018-08-23T04:51:06.703Z,2.10
2018-08-23T04:53:35.454Z,2.17
2018-08-23T04:56:04.053Z,2.07
2018-08-23T04:58:32.726Z,2.40
2018-08-23T05:01:01.325Z,2.40
2018-08-23T05:03:29.929Z,2.13
2018-08-23T05:05:58.602Z,2.27
2018-08-23T05:08:27.378Z,2.10
2018-08-23T05:10:55.964Z,2.03
2018-08-23T05:13:24.634Z,2.30
2018-08-23T05:15:53.276Z,2.20
2018-08-23T05:18:21.909Z,1.97
2018-08-23T05:20:50.531Z,2.20
2018-08-23T05:23:20.280Z,2.13
2018-08-23T05:25:48.880Z,2.53
2018-08-23T05:28:19.978Z,2.07
2018-08-23T05:30:49.414Z,2.30
2018-08-23T05:33:18.980Z,2.33
2018-08-23T05:35:47.730Z,2.50
2018-08-23T05:38:17.091Z,2.33
2018-08-23T05:40:51.814Z,2.50
2018-08-23T05:43:20.904Z,2.40
2018-08-23T05:45:53.729Z,2.80
2018-08-23T05:48:32.472Z,2.60
2018-08-23T05:51:10.970Z,2.60
2018-08-23T05:53:49.270Z,2.40
2018-08-23T05:56:19.401Z,2.53
2018-08-23T05:58:48.053Z,2.70
2018-08-23T06:01:16.835Z,2.87
2018-08-23T06:03:45.547Z,2.43
2018-08-23T06:06:14.148Z,2.27
2018-08-23T06:08:44.333Z,2.43
2018-08-23T06:11:12.977Z,2.30
2018-08-23T06:13:41.645Z,2.60
2018-08-23T06:16:10.246Z,2.77
2018-08-23T06:18:38.868Z,2.77
2018-08-23T06:21:07.506Z,3.03
2018-08-23T06:24:10.199Z,2.57
2018-08-23T06:26:43.748Z,2.20
2018-08-23T06:29:23.966Z,2.97
2018-08-23T06:32:11.377Z,3.60
2018-08-23T06:34:42.919Z,2.80
2018-08-23T06:37:11.597Z,2.67
2018-08-23T06:39:41.473Z,2.43
2018-08-23T06:42:10.174Z,2.67
2018-08-23T06:44:44.304Z,2.70
2018-08-23T06:47:15.357Z,2.87
2018-08-23T06:49:45.180Z,2.60
2018-08-23T06:52:16.069Z,2.90
2018-08-23T06:54:44.726Z,2.90
2018-08-23T06:57:13.358Z,2.77
2018-08-23T06:59:42.058Z,2.87
2018-08-23T07:02:10.816Z,2.57
2018-08-23T07:04:39.439Z,2.63
2018-08-23T07:07:12.257Z,2.73
2018-08-23T07:09:41.645Z,3.10
2018-08-23T07:12:15.579Z,2.60
2018-08-23T07:14:46.430Z,2.90
2018-08-23T07:17:20.497Z,2.80
2018-08-23T07:19:49.456Z,2.90
2018-08-23T07:22:22.184Z,2.70
2018-08-23T07:24:51.831Z,2.37
2018-08-23T07:27:21.197Z,2.30
2018-08-23T07:29:51.026Z,2.40
2018-08-23T07:32:23.455Z,2.50
2018-08-23T07:34:57.077Z,2.27
2018-08-23T07:37:25.708Z,2.40
2018-08-23T07:39:59.490Z,2.10
2018-08-23T07:42:29.325Z,2.43
2018-08-23T07:44:58.638Z,2.53
2018-08-23T07:47:27.461Z,1.90
2018-08-23T07:49:57.219Z,2.00
2018-08-23T07:52:27.031Z,2.03
2018-08-23T07:54:55.711Z,2.00
2018-08-23T07:57:24.391Z,2.00
2018-08-23T07:59:58.999Z,2.03
2018-08-23T08:02:28.357Z,1.97
2018-08-23T08:04:57.540Z,1.90
2018-08-23T08:07:28.328Z,1.97
2018-08-23T08:09:58.922Z,2.10
2018-08-23T08:12:40.093Z,2.03
2018-08-23T08:15:11.471Z,1.97
2018-08-23T08:17:40.775Z,2.20
2018-08-23T08:20:10.545Z,2.17
2018-08-23T08:52:36.476Z,2.27
2018-08-23T08:55:06.643Z,1.90
2018-08-23T08:57:39.482Z,1.77
2018-08-23T09:00:08.805Z,1.70
2018-08-23T09:02:37.859Z,1.60
2018-08-23T09:05:06.867Z,1.77
2018-08-23T09:07:37.306Z,2.20
2018-08-23T09:10:06.604Z,2.20
2018-08-23T09:12:39.421Z,2.00
2018-08-23T09:15:08.270Z,2.10
2018-08-23T09:17:39.776Z,2.03
2018-08-23T09:20:15.975Z,2.10
2018-08-23T09:22:49.935Z,2.07
2018-08-23T09:25:32.523Z,1.97
2018-08-23T09:28:05.236Z,2.00
2018-08-23T09:30:34.161Z,1.87
2018-08-23T09:33:07.882Z,2.13
2018-08-23T09:35:36.795Z,1.70
2018-08-23T09:38:13.996Z,1.80
2018-08-23T09:40:42.789Z,2.40
2018-08-23T09:43:11.520Z,1.97
2018-08-23T09:45:40.585Z,1.47
2018-08-23T09:48:09.693Z,1.77
2018-08-23T09:50:38.491Z,1.80
2018-08-23T09:53:14.608Z,1.53
2018-08-23T09:55:45.193Z,1.60
2018-08-23T09:58:19.172Z,1.47
2018-08-23T10:00:52.885Z,1.70
2018-08-23T10:03:26.724Z,1.67
2018-08-23T10:06:06.199Z,1.57
2018-08-23T10:08:40.041Z,1.60
2018-08-23T10:11:19.195Z,1.73
2018-08-23T10:13:52.967Z,1.60
2018-08-23T10:16:26.875Z,1.50
2018-08-23T10:18:57.572Z,1.50
2018-08-23T10:21:31.464Z,1.70
2018-08-23T10:24:09.275Z,1.80
2018-08-23T10:26:38.035Z,1.93
2018-08-23T10:29:06.742Z,1.77
2018-08-23T10:31:35.364Z,1.50
2018-08-23T10:34:04.062Z,1.60
2018-08-23T10:36:32.688Z,2.00
2018-08-23T10:39:01.356Z,1.40
2018-08-23T10:41:30.048Z,2.03
2018-08-23T10:43:58.727Z,2.30
2018-08-23T10:46:27.436Z,1.83
2018-08-23T10:48:56.152Z,1.67
2018-08-23T10:51:24.817Z,1.70
2018-08-23T10:53:53.472Z,1.80
2018-08-23T10:56:26.512Z,2.00
2018-08-23T10:58:55.426Z,1.80
2018-08-23T11:01:24.104Z,2.00
2018-08-23T11:03:52.772Z,2.37
2018-08-23T11:06:21.435Z,1.90
2018-08-23T11:08:55.257Z,1.80
2018-08-23T11:11:29.076Z,1.73
2018-08-23T11:13:57.808Z,2.00
2018-08-23T11:16:31.601Z,1.80
2018-08-23T11:19:05.306Z,2.10
2018-08-23T11:21:33.976Z,1.70
2018-08-23T11:24:02.700Z,2.40
2018-08-23T11:26:31.360Z,1.90
2018-08-23T11:29:00.068Z,2.17
2018-08-23T11:31:29.057Z,1.87
2018-08-23T11:33:57.715Z,2.30
2018-08-23T11:36:26.392Z,2.20
2018-08-23T11:38:55.081Z,2.40
2018-08-23T11:41:23.711Z,2.20
2018-08-23T11:43:52.341Z,2.43
2018-08-23T11:46:21.991Z,2.80
2018-08-23T11:48:50.888Z,2.53
2018-08-23T11:51:19.939Z,2.83
2018-08-23T11:53:48.848Z,2.30
2018-08-23T11:56:17.492Z,2.43
2018-08-23T11:58:46.165Z,2.90
2018-08-23T12:01:16.021Z,3.20
2018-08-23T12:03:45.209Z,3.30
2018-08-23T12:06:15.171Z,3.20
2018-08-23T12:08:44.157Z,3.10
2018-08-23T12:11:12.831Z,3.27
2018-08-23T12:13:46.346Z,3.43
2018-08-23T12:16:15.041Z,3.23
2018-08-23T12:18:43.732Z,2.80
2018-08-23T12:21:12.423Z,2.97
2018-08-23T12:23:41.124Z,3.03
2018-08-23T12:26:09.856Z,3.30
2018-08-23T12:28:43.654Z,3.73
2018-08-23T12:31:12.362Z,4.10
2018-08-23T12:33:41.060Z,4.17
2018-08-23T12:36:10.176Z,4.80
2018-08-23T12:38:44.053Z,4.53
2018-08-23T12:41:17.887Z,4.47
2018-08-23T12:43:50.761Z,4.80
2018-08-23T12:46:19.449Z,3.47
2018-08-23T12:48:48.505Z,4.20
2018-08-23T12:51:17.181Z,3.43
2018-08-23T12:53:45.875Z,3.00
2018-08-23T12:56:14.530Z,3.17
2018-08-23T12:58:43.212Z,3.20
2018-08-23T13:01:11.876Z,3.37
2018-08-23T13:03:41.154Z,2.90
2018-08-23T13:06:09.855Z,3.17
2018-08-23T13:08:38.570Z,2.63
2018-08-23T13:11:08.185Z,3.03
2018-08-23T13:13:36.792Z,2.83
2018-08-23T13:16:05.517Z,3.10
2018-08-23T13:18:34.215Z,2.53
2018-08-23T13:21:02.899Z,2.73
2018-08-23T13:23:31.624Z,3.00
2018-08-23T13:26:00.305Z,2.63
2018-08-23T13:28:29.175Z,2.90
2018-08-23T13:30:57.827Z,3.07
2018-08-23T13:33:26.887Z,2.80
2018-08-23T13:35:55.539Z,2.70
2018-08-23T13:38:24.232Z,3.00
2018-08-23T13:40:52.920Z,3.27
2018-08-23T13:43:21.596Z,3.00
2018-08-23T13:45:50.298Z,3.17
2018-08-23T13:48:19.027Z,3.30
2018-08-23T13:50:47.699Z,2.50
2018-08-23T13:53:16.381Z,3.07
2018-08-23T13:55:45.071Z,3.07
2018-08-23T13:58:13.760Z,3.07
2018-08-23T14:00:42.574Z,2.97
2018-08-23T14:03:11.880Z,2.90
2018-08-23T14:05:41.517Z,3.33
2018-08-23T14:08:10.532Z,3.33
2018-08-23T14:10:39.200Z,3.30
2018-08-23T14:13:08.176Z,3.40
2018-08-23T14:15:42.109Z,2.90
2018-08-23T14:18:10.809Z,2.83
2018-08-23T14:20:39.570Z,3.13
2018-08-23T14:23:08.288Z,3.23
2018-08-23T14:25:37.016Z,3.10
2018-08-23T14:28:06.347Z,3.33
2018-08-23T14:30:35.191Z,3.03
2018-08-23T14:33:03.892Z,2.77
2018-08-23T14:35:32.572Z,3.40
2018-08-23T14:38:01.236Z,3.00
2018-08-23T14:40:29.944Z,2.97
2018-08-23T14:42:58.586Z,2.80
2018-08-23T14:45:30.738Z,3.00
2018-08-23T14:48:04.572Z,3.30
2018-08-23T14:50:34.329Z,3.63
2018-08-23T14:53:03.207Z,3.27
2018-08-23T14:55:36.868Z,3.30
2018-08-23T14:58:05.693Z,2.87
2018-08-23T15:00:34.376Z,3.67
2018-08-23T15:03:03.152Z,3.23
2018-08-23T15:05:31.786Z,3.27
2018-08-23T15:08:00.426Z,3.00
2018-08-23T15:10:29.116Z,3.20
2018-08-23T15:12:57.795Z,3.07
2018-08-23T15:15:31.662Z,3.50
2018-08-23T15:18:00.281Z,3.63
2018-08-23T15:20:28.944Z,3.60
2018-08-23T15:22:57.629Z,3.43
2018-08-23T15:25:26.269Z,3.80
2018-08-23T15:27:54.945Z,3.60
2018-08-23T15:30:23.635Z,3.60
2018-08-23T15:32:52.357Z,3.90
2018-08-23T15:35:21.037Z,3.40
2018-08-23T15:37:49.813Z,3.50
2018-08-23T15:40:18.495Z,3.83
2018-08-23T15:42:47.168Z,4.07
2018-08-23T15:45:15.838Z,3.73
2018-08-23T15:47:44.512Z,3.83
2018-08-23T15:50:13.210Z,3.80
2018-08-23T15:52:41.875Z,3.90
2018-08-23T15:55:10.670Z,3.90
2018-08-23T15:57:39.432Z,4.07
2018-08-23T16:00:09.644Z,3.43
2018-08-23T16:02:38.329Z,3.30
2018-08-23T16:05:07.105Z,3.70
2018-08-23T16:07:35.783Z,3.60
2018-08-23T16:10:04.892Z,3.90
2018-08-23T16:12:33.805Z,4.17
2018-08-23T16:15:06.629Z,2.97
2018-08-23T16:17:40.417Z,3.70
2018-08-23T16:20:14.132Z,3.47
2018-08-23T16:22:42.982Z,3.63
2018-08-23T16:25:11.992Z,3.27
2018-08-23T16:27:40.695Z,3.20
2018-08-23T16:30:09.514Z,3.40
2018-08-23T16:32:39.976Z,3.30
2018-08-23T16:35:08.732Z,3.53
2018-08-23T16:37:37.481Z,3.50
2018-08-23T16:40:06.297Z,2.73
2018-08-23T16:42:35.018Z,3.23
2018-08-23T16:45:03.716Z,3.07
2018-08-23T16:47:32.485Z,2.90
2018-08-23T16:50:01.243Z,4.10
2018-08-23T16:52:29.976Z,3.93
2018-08-23T16:54:58.675Z,3.77
2018-08-23T16:57:27.353Z,4.57
2018-08-23T16:59:56.082Z,3.87
2018-08-23T17:02:24.857Z,4.07
2018-08-23T17:04:53.670Z,4.80
2018-08-23T17:07:22.382Z,4.13
2018-08-23T17:09:51.067Z,3.50
2018-08-23T17:12:19.806Z,4.37
2018-08-23T17:14:48.555Z,4.53
2018-08-23T17:17:22.451Z,5.27
2018-08-23T17:19:51.140Z,5.20
2018-08-23T17:22:19.812Z,5.70
2018-08-23T17:24:48.513Z,5.03
2018-08-23T17:27:17.226Z,4.17
2018-08-23T17:29:45.916Z,4.77
2018-08-23T17:32:14.664Z,5.23
2018-08-23T17:34:43.352Z,4.03
2018-08-23T17:37:12.051Z,3.87
2018-08-23T17:39:40.782Z,4.50
2018-08-23T17:42:09.456Z,3.83
2018-08-23T17:44:38.153Z,3.07
2018-08-23T17:47:06.919Z,4.40
2018-08-23T17:49:35.608Z,3.47
2018-08-23T17:52:04.356Z,3.60
2018-08-23T17:54:33.064Z,3.77
2018-08-23T17:57:01.745Z,3.43
2018-08-23T17:59:30.456Z,3.53
2018-08-23T18:01:59.125Z,3.10
2018-08-23T18:04:27.791Z,3.47
2018-08-23T18:06:56.551Z,3.13
2018-08-23T18:09:25.233Z,3.30
2018-08-23T18:11:53.959Z,3.10
2018-08-23T18:14:22.627Z,3.40
2018-08-23T18:16:56.500Z,3.43
2018-08-23T18:19:25.194Z,3.17
2018-08-23T18:21:53.944Z,3.60
2018-08-23T18:24:25.661Z,3.00
2018-08-23T18:27:01.496Z,3.93
2018-08-23T18:29:32.301Z,3.40
2018-08-23T18:32:04.128Z,2.93
2018-08-23T18:34:33.748Z,2.90
2018-08-23T18:37:03.278Z,2.50
2018-08-23T18:39:32.060Z,3.53
2018-08-23T18:42:00.944Z,3.23
2018-08-23T18:44:29.748Z,3.00
2018-08-23T18:46:58.592Z,2.80
2018-08-23T18:49:27.372Z,3.37
2018-08-23T18:51:56.126Z,2.43
2018-08-23T18:54:24.977Z,2.90
2018-08-23T18:56:53.692Z,2.73
2018-08-23T18:59:22.427Z,2.27
2018-08-23T19:01:51.144Z,2.97
2018-08-23T19:04:19.874Z,2.63
2018-08-23T19:06:48.596Z,2.80
2018-08-23T19:09:17.307Z,2.80
2018-08-23T19:11:46.000Z,2.60
2018-08-23T19:14:14.723Z,3.10
2018-08-23T19:16:48.636Z,2.40
2018-08-23T19:19:17.348Z,2.23
2018-08-23T19:21:46.121Z,2.57
2018-08-23T19:24:14.828Z,3.20
2018-08-23T19:26:43.541Z,2.00
2018-08-23T19:29:12.290Z,2.53
2018-08-23T19:31:41.083Z,2.40
2018-08-23T19:34:09.774Z,2.30
2018-08-23T19:36:38.452Z,2.47
2018-08-23T19:39:10.055Z,2.27
2018-08-23T19:41:38.808Z,2.90
2018-08-23T19:44:07.523Z,2.60
2018-08-23T19:46:41.258Z,2.47
2018-08-23T19:49:15.196Z,2.17
2018-08-23T19:51:43.988Z,2.57
2018-08-23T19:54:12.782Z,2.60
2018-08-23T19:56:41.565Z,2.33
2018-08-23T19:59:10.288Z,2.07
2018-08-23T20:01:39.135Z,2.30
2018-08-23T20:04:07.940Z,2.20
2018-08-23T20:06:36.764Z,1.87
2018-08-23T20:09:07.901Z,2.27
2018-08-23T20:11:36.717Z,2.20
2018-08-23T20:14:05.567Z,2.30
2018-08-23T20:16:34.383Z,2.47
2018-08-23T20:19:03.194Z,1.60
2018-08-23T20:21:31.996Z,2.10
2018-08-23T20:24:00.774Z,1.93
2018-08-23T20:26:29.538Z,1.73
2018-08-23T20:28:58.233Z,2.37
2018-08-23T20:31:26.945Z,1.77
2018-08-23T20:33:55.755Z,1.80
2018-08-23T20:36:24.516Z,2.27
2018-08-23T20:38:53.440Z,2.63
2018-08-23T20:41:22.193Z,2.03
2018-08-23T20:43:50.927Z,1.90
2018-08-23T20:46:19.652Z,2.40
2018-08-23T20:48:48.401Z,1.50
2018-08-23T20:51:17.126Z,1.90
2018-08-23T20:53:45.909Z,1.90
2018-08-23T20:56:14.663Z,1.70
2018-08-23T20:58:43.364Z,1.90
2018-08-23T21:01:12.121Z,1.70
2018-08-23T21:03:40.856Z,1.67
2018-08-23T21:06:09.576Z,2.00
2018-08-23T21:08:38.292Z,1.90
2018-08-23T21:11:06.968Z,2.43
2018-08-23T21:13:35.803Z,1.80
2018-08-23T21:16:04.490Z,2.17
2018-08-23T21:18:33.175Z,2.50
2018-08-23T21:21:01.910Z,2.03
2018-08-23T21:23:30.585Z,2.37
2018-08-23T21:25:59.279Z,2.33
2018-08-23T21:28:27.944Z,2.40
2018-08-23T21:30:56.604Z,2.10
2018-08-23T21:33:25.289Z,2.93
2018-08-23T21:35:53.989Z,2.87
2018-08-23T21:38:22.689Z,2.03
2018-08-23T21:40:51.403Z,2.50
2018-08-23T21:43:20.180Z,2.40
2018-08-23T21:45:48.888Z,2.53
2018-08-23T21:48:17.772Z,2.33
2018-08-23T21:50:46.438Z,2.30
2018-08-23T21:53:15.447Z,2.20
2018-08-23T21:55:44.124Z,2.20
2018-08-23T21:58:12.857Z,1.93
2018-08-23T22:00:46.658Z,2.07
2018-08-23T22:03:15.393Z,2.20
2018-08-23T22:05:44.093Z,2.03
2018-08-23T22:08:12.758Z,2.30
2018-08-23T22:10:41.480Z,2.00
2018-08-23T22:13:10.156Z,2.90
2018-08-23T22:15:43.993Z,2.57
2018-08-23T22:18:12.713Z,2.20
2018-08-23T22:20:41.431Z,2.00
2018-08-23T22:23:10.190Z,2.40
2018-08-23T22:25:39.204Z,2.40
2018-08-23T22:28:08.290Z,2.30
2018-08-23T22:30:37.304Z,2.13
2018-08-23T22:33:06.250Z,2.87
2018-08-23T22:35:35.007Z,2.43
2018-08-23T22:38:03.673Z,2.37
2018-08-23T22:40:32.351Z,1.87
2018-08-23T22:43:01.001Z,2.40
2018-08-23T22:45:29.727Z,1.73
2018-08-23T22:47:58.421Z,2.03
2018-08-23T22:50:27.127Z,2.13
2018-08-23T22:52:56.009Z,2.73
2018-08-23T22:55:24.689Z,2.57
2018-08-23T22:57:53.539Z,2.40
2018-08-23T23:00:27.491Z,1.47
2018-08-23T23:02:56.208Z,2.20
2018-08-23T23:05:25.009Z,2.30
2018-08-23T23:07:53.636Z,1.83
2018-08-23T23:10:22.324Z,2.20
2018-08-23T23:12:51.079Z,1.93
2018-08-23T23:15:25.660Z,1.90
2018-08-23T23:17:54.445Z,2.67
2018-08-23T23:20:23.132Z,2.63
2018-08-23T23:22:51.797Z,2.63
2018-08-23T23:25:20.480Z,1.90
2018-08-23T23:27:49.143Z,3.03
2018-08-23T23:30:17.813Z,2.60
2018-08-23T23:32:46.533Z,2.60
2018-08-23T23:35:15.200Z,2.70
2018-08-23T23:37:43.912Z,1.73
2018-08-23T23:40:12.615Z,2.07
2018-08-23T23:42:41.280Z,2.27
2018-08-23T23:45:10.157Z,2.30
2018-08-23T23:47:38.815Z,2.33
2018-08-23T23:50:07.795Z,2.67
2018-08-23T23:52:36.436Z,2.43
2018-08-23T23:55:05.194Z,3.00
2018-08-23T23:57:33.992Z,2.10
